Time;durP1;ratioP1;P1;durP2;ratioP2;P2;SDS_P1;SDS_P2;PMS_P1;PMS_P2;Temp;Humidity;BMP_temperature;BMP_pressure;BME280_temperature;BME280_humidity;BME280_pressure;Samples;Min_cycle;Max_cycle;Signal;HPM_P1;HPM_P2
2023/10/07 04:02:31;;;;;;;8.60;7.80;;;15.70;99.90;;;;;;5029865;23;20598;-70
2023/10/07 04:05:10;;;;;;;7.13;6.53;;;15.70;99.90;;;;;;4945748;28;20962;-70
2023/10/07 04:07:37;;;;;;;8.10;7.40;;;15.70;99.90;;;;;;4948414;28;20952;-70
2023/10/07 04:10:13;;;;;;;7.27;6.77;;;15.70;99.90;;;;;;4952119;29;20460;-71
2023/10/07 04:12:40;;;;;;;7.83;7.23;;;15.70;99.90;;;;;;4926972;29;20493;-70
2023/10/07 04:15:11;;;;;;;8.50;7.17;;;15.70;99.90;;;;;;4925480;29;20844;-72
2023/10/07 04:17:39;;;;;;;7.17;6.57;;;15.70;99.90;;;;;;4923569;29;20815;-72
2023/10/07 04:20:18;;;;;;;7.20;6.50;;;15.70;99.90;;;;;;4933199;29;20664;-72
2023/10/07 04:22:54;;;;;;;8.13;7.33;;;15.80;99.90;;;;;;4927020;29;20459;-71
2023/10/07 04:25:20;;;;;;;7.73;7.00;;;15.80;99.90;;;;;;4926974;29;20477;-72
2023/10/07 04:27:53;;;;;;;7.17;6.43;;;15.80;99.90;;;;;;4935028;29;20463;-71
2023/10/07 04:30:24;;;;;;;9.30;6.70;;;15.80;99.90;;;;;;4936180;29;20479;-72
2023/10/07 04:32:53;;;;;;;6.60;6.10;;;15.80;99.90;;;;;;4938497;29;20499;-72
2023/10/07 04:35:26;;;;;;;5.70;5.20;;;15.80;99.90;;;;;;4938372;29;20503;-72
2023/10/07 04:37:55;;;;;;;7.00;6.50;;;15.80;99.90;;;;;;4938409;29;20476;-72
2023/10/07 04:40:53;;;;;;;6.00;5.53;;;15.80;99.90;;;;;;4938123;29;20891;-72
2023/10/07 04:43:35;;;;;;;4.80;4.50;;;15.80;99.90;;;;;;4938017;29;20554;-72
2023/10/07 04:46:06;;;;;;;6.90;6.07;;;15.80;99.90;;;;;;4938079;29;20972;-72
2023/10/07 04:48:42;;;;;;;5.80;5.30;;;15.80;99.90;;;;;;4938216;29;20494;-72
2023/10/07 04:51:12;;;;;;;5.73;5.20;;;15.80;99.90;;;;;;4937809;29;20506;-72
2023/10/07 04:53:38;;;;;;;4.93;4.60;;;15.80;99.90;;;;;;4937790;29;20483;-72
2023/10/07 04:56:06;;;;;;;5.40;5.00;;;15.80;99.90;;;;;;4938004;29;21106;-72
2023/10/07 04:58:32;;;;;;;5.20;4.80;;;15.80;99.90;;;;;;4930096;29;20471;-72
2023/10/07 05:01:06;;;;;;;4.87;4.50;;;15.80;99.90;;;;;;4937647;29;20503;-71
2023/10/07 05:03:34;;;;;;;4.57;4.20;;;15.90;99.90;;;;;;4938145;29;20938;-72
2023/10/07 05:06:00;;;;;;;4.07;3.87;;;15.90;99.90;;;;;;4937921;29;20471;-71
2023/10/07 05:08:28;;;;;;;4.20;4.00;;;15.90;99.90;;;;;;4937726;29;20856;-72
2023/10/07 05:11:04;;;;;;;3.83;3.73;;;15.90;99.90;;;;;;4937628;29;20288;-72
2023/10/07 05:13:32;;;;;;;3.37;3.20;;;15.90;99.90;;;;;;4939304;29;20534;-72
2023/10/07 05:15:58;;;;;;;3.53;3.43;;;15.90;99.90;;;;;;4939283;29;20467;-72
2023/10/07 05:18:25;;;;;;;3.20;3.10;;;15.90;99.90;;;;;;4938951;29;20897;-72
2023/10/07 05:20:53;;;;;;;4.03;3.73;;;15.90;99.90;;;;;;4930810;29;20560;-72
2023/10/07 05:23:21;;;;;;;3.43;3.33;;;16.00;99.90;;;;;;4930105;29;20955;-72
2023/10/07 05:25:50;;;;;;;4.00;3.70;;;16.00;99.90;;;;;;4937500;29;20472;-73
2023/10/07 05:28:20;;;;;;;4.20;3.60;;;16.00;99.90;;;;;;4937274;29;20831;-72
2023/10/07 05:30:51;;;;;;;3.37;3.27;;;16.00;99.90;;;;;;4937367;29;20864;-72
2023/10/07 05:33:20;;;;;;;3.23;3.13;;;16.00;99.90;;;;;;4937839;29;20506;-73
2023/10/07 05:35:49;;;;;;;3.60;3.30;;;16.00;99.90;;;;;;4937286;29;20836;-72
2023/10/07 05:38:17;;;;;;;3.27;2.93;;;16.00;99.90;;;;;;4937195;29;20472;-72
2023/10/07 05:40:46;;;;;;;2.70;2.60;;;16.00;99.90;;;;;;4937253;29;20544;-72
2023/10/07 05:43:13;;;;;;;3.00;2.83;;;16.00;99.90;;;;;;4936209;29;20560;-72
2023/10/07 05:45:40;;;;;;;3.30;3.20;;;16.00;99.90;;;;;;4937197;29;20464;-72
2023/10/07 05:48:07;;;;;;;2.83;2.73;;;16.00;99.90;;;;;;4937236;29;20464;-72
2023/10/07 05:50:34;;;;;;;2.67;2.57;;;16.10;99.90;;;;;;4937150;29;20492;-74
2023/10/07 05:53:03;;;;;;;1.97;1.97;;;16.10;99.90;;;;;;4937086;29;20493;-73
2023/10/07 05:55:33;;;;;;;3.03;2.87;;;16.10;99.90;;;;;;4936856;29;20476;-72
2023/10/07 05:57:59;;;;;;;3.07;2.90;;;16.10;99.90;;;;;;4937086;29;20526;-72
2023/10/07 06:00:31;;;;;;;2.83;2.83;;;16.10;99.90;;;;;;4936852;29;20479;-72
2023/10/07 06:02:59;;;;;;;2.20;2.00;;;16.10;99.90;;;;;;4936867;29;21163;-72
2023/10/07 06:05:27;;;;;;;2.27;2.17;;;16.10;99.90;;;;;;4936867;29;20499;-72
2023/10/07 06:07:54;;;;;;;3.47;3.27;;;16.20;99.90;;;;;;4936929;29;20472;-72
2023/10/07 06:10:24;;;;;;;2.77;2.67;;;16.10;99.90;;;;;;4936664;29;20464;-72
2023/10/07 06:12:54;;;;;;;2.23;2.23;;;16.20;99.90;;;;;;4936825;29;20488;-72
2023/10/07 06:15:21;;;;;;;2.80;2.70;;;16.20;99.90;;;;;;4936912;29;20468;-72
2023/10/07 06:17:50;;;;;;;2.83;2.73;;;16.20;99.90;;;;;;4936837;29;20555;-72
2023/10/07 06:20:26;;;;;;;3.30;3.10;;;16.20;99.90;;;;;;4936440;29;20468;-72
2023/10/07 06:22:56;;;;;;;3.60;2.53;;;16.20;99.90;;;;;;4936491;29;20837;-72
2023/10/07 06:25:30;;;;;;;2.77;2.67;;;16.20;99.90;;;;;;4928977;29;20562;-71
2023/10/07 06:27:59;;;;;;;3.27;3.10;;;16.20;99.90;;;;;;4936614;29;20467;-71
2023/10/07 06:30:27;;;;;;;3.77;3.57;;;16.20;99.90;;;;;;4936536;29;20467;-71
2023/10/07 06:32:56;;;;;;;3.20;3.10;;;16.20;99.90;;;;;;4936339;29;21034;-72
2023/10/07 06:35:23;;;;;;;3.90;3.70;;;16.20;99.90;;;;;;4928886;29;20528;-72
2023/10/07 06:37:52;;;;;;;3.53;3.33;;;16.20;99.90;;;;;;4936088;29;20971;-72
2023/10/07 06:40:26;;;;;;;4.30;4.00;;;16.20;99.90;;;;;;4936187;29;20495;-72
2023/10/07 06:42:55;;;;;;;4.30;3.97;;;16.20;99.90;;;;;;4936241;29;20509;-73
2023/10/07 06:45:23;;;;;;;4.40;4.10;;;16.20;99.90;;;;;;4936049;29;20500;-72
2023/10/07 06:47:51;;;;;;;5.27;4.80;;;16.20;99.90;;;;;;4936128;29;20927;-72
2023/10/07 06:50:19;;;;;;;4.13;3.83;;;16.20;99.90;;;;;;4936366;29;20500;-71
2023/10/07 06:52:49;;;;;;;5.07;4.67;;;16.20;99.90;;;;;;4936264;29;20469;-71
2023/10/07 06:55:16;;;;;;;4.43;4.10;;;16.20;99.90;;;;;;4936058;29;20825;-71
2023/10/07 06:57:46;;;;;;;4.00;3.70;;;16.30;99.90;;;;;;4936339;29;20536;-72
2023/10/07 07:00:22;;;;;;;4.40;4.20;;;16.30;99.90;;;;;;4937197;29;20760;-71
2023/10/07 07:02:57;;;;;;;4.33;4.03;;;16.30;99.90;;;;;;4935965;29;20468;-71
2023/10/07 07:05:25;;;;;;;6.10;5.30;;;16.30;99.90;;;;;;4935871;29;20466;-71
2023/10/07 07:07:53;;;;;;;4.00;3.80;;;16.30;99.90;;;;;;4936041;29;20545;-71
2023/10/07 07:10:27;;;;;;;5.77;5.27;;;16.30;99.90;;;;;;4935936;29;20559;-71
2023/10/07 07:12:58;;;;;;;4.97;4.63;;;16.30;99.90;;;;;;4935794;29;20472;-71
2023/10/07 07:15:27;;;;;;;6.07;4.83;;;16.30;99.90;;;;;;4935842;29;20464;-71
2023/10/07 07:18:08;;;;;;;6.13;5.13;;;16.30;99.90;;;;;;4935560;29;20912;-71
2023/10/07 07:20:48;;;;;;;6.77;5.87;;;16.30;99.90;;;;;;4935561;29;20492;-71
2023/10/07 07:23:16;;;;;;;6.33;5.83;;;16.30;99.90;;;;;;4935439;29;20480;-71
2023/10/07 07:25:49;;;;;;;7.37;6.63;;;16.30;99.90;;;;;;4935271;29;20963;-71
2023/10/07 07:28:17;;;;;;;7.33;6.83;;;16.40;99.90;;;;;;4935309;29;20468;-71
2023/10/07 07:30:45;;;;;;;7.37;6.77;;;16.30;99.90;;;;;;4935199;29;20484;-71
2023/10/07 07:33:15;;;;;;;7.10;6.10;;;16.30;99.90;;;;;;4935245;29;20580;-71
2023/10/07 07:35:43;;;;;;;9.03;5.57;;;16.40;99.90;;;;;;4934956;29;20528;-71
2023/10/07 07:38:26;;;;;;;5.60;5.10;;;16.30;99.90;;;;;;4935238;29;20474;-71
2023/10/07 07:41:04;;;;;;;7.07;6.47;;;16.40;99.90;;;;;;4935119;29;20492;-70
2023/10/07 07:43:31;;;;;;;7.37;6.57;;;16.40;99.90;;;;;;4935097;29;20487;-71
2023/10/07 07:46:12;;;;;;;6.27;5.67;;;16.40;99.90;;;;;;4935034;29;20959;-70
2023/10/07 07:48:40;;;;;;;10.20;6.47;;;16.40;99.90;;;;;;4935419;29;20478;-70
2023/10/07 07:51:09;;;;;;;7.40;6.20;;;16.40;99.90;;;;;;4934864;29;20493;-70
2023/10/07 07:53:35;;;;;;;7.10;6.40;;;16.40;99.90;;;;;;4934841;29;20496;-70
2023/10/07 07:56:03;;;;;;;8.80;6.87;;;16.40;99.90;;;;;;4934896;29;20469;-71
2023/10/07 07:58:30;;;;;;;8.23;7.00;;;16.40;99.90;;;;;;4934755;29;20484;-71
2023/10/07 08:01:05;;;;;;;9.30;6.60;;;16.40;99.90;;;;;;4934715;29;20496;-71
2023/10/07 08:03:35;;;;;;;7.77;7.03;;;16.40;99.90;;;;;;4934877;29;20468;-71
2023/10/07 08:06:04;;;;;;;10.80;7.00;;;16.40;99.90;;;;;;4934383;29;20504;-71
2023/10/07 08:08:31;;;;;;;8.57;7.83;;;16.40;99.90;;;;;;4934915;29;20473;-71
2023/10/07 08:10:59;;;;;;;9.80;8.60;;;16.40;99.90;;;;;;4935695;29;21053;-71
2023/10/07 08:13:27;;;;;;;9.60;8.50;;;16.40;99.90;;;;;;4935802;29;20490;-72
2023/10/07 08:15:54;;;;;;;12.43;8.73;;;16.40;99.90;;;;;;4935365;29;20530;-71
2023/10/07 08:18:28;;;;;;;8.93;8.03;;;16.40;99.90;;;;;;4935190;29;20469;-71
2023/10/07 08:21:06;;;;;;;13.73;8.50;;;16.40;99.90;;;;;;4934986;29;21005;-71
2023/10/07 08:23:36;;;;;;;13.20;8.90;;;16.40;99.90;;;;;;4934561;29;20472;-71
2023/10/07 08:26:10;;;;;;;10.50;8.93;;;16.40;99.90;;;;;;4934871;29;20463;-71
2023/10/07 08:28:42;;;;;;;8.53;7.33;;;16.40;99.90;;;;;;4935068;29;20464;-71
2023/10/07 08:31:17;;;;;;;15.10;7.80;;;16.40;99.90;;;;;;4934530;29;20497;-71
2023/10/07 08:33:52;;;;;;;13.20;9.13;;;16.50;99.90;;;;;;4935171;29;20496;-71
2023/10/07 08:36:27;;;;;;;9.60;7.67;;;16.40;99.90;;;;;;4934540;29;20475;-71
2023/10/07 08:38:58;;;;;;;11.10;8.87;;;16.40;99.90;;;;;;4934841;29;20473;-71
2023/10/07 08:41:31;;;;;;;14.67;7.97;;;16.50;99.90;;;;;;4934577;29;20575;-71
2023/10/07 08:44:12;;;;;;;9.73;8.00;;;16.50;99.90;;;;;;4934277;29;20470;-71
2023/10/07 08:46:40;;;;;;;12.30;8.93;;;16.50;99.90;;;;;;4934673;29;20469;-71
2023/10/07 08:49:15;;;;;;;11.97;7.93;;;16.50;99.90;;;;;;4934664;29;20467;-71
2023/10/07 08:51:45;;;;;;;8.00;7.03;;;16.50;99.90;;;;;;4934603;29;20484;-71
2023/10/07 08:54:18;;;;;;;8.47;6.87;;;16.50;99.90;;;;;;4934184;29;20860;-71
2023/10/07 08:56:54;;;;;;;7.67;6.97;;;16.50;99.90;;;;;;4934523;29;20469;-71
2023/10/07 08:59:22;;;;;;;8.00;6.90;;;16.50;99.90;;;;;;4934711;29;20464;-71
2023/10/07 09:01:57;;;;;;;7.80;6.73;;;16.50;99.90;;;;;;4934278;29;20505;-71
2023/10/07 09:04:24;;;;;;;6.20;5.60;;;16.50;99.90;;;;;;4934228;29;20478;-71
2023/10/07 09:06:51;;;;;;;6.50;5.90;;;16.50;99.90;;;;;;4934319;29;20472;-71
2023/10/07 09:09:38;;;;;;;5.90;5.40;;;16.50;99.90;;;;;;4933982;29;20472;-71
2023/10/07 09:12:14;;;;;;;5.10;4.70;;;16.50;99.90;;;;;;4934372;29;20495;-71
2023/10/07 09:14:48;;;;;;;6.17;5.57;;;16.50;99.90;;;;;;4934135;29;20511;-71
2023/10/07 09:17:15;;;;;;;8.47;5.60;;;16.50;99.90;;;;;;4935410;29;20473;-71
2023/10/07 09:19:47;;;;;;;6.10;4.27;;;16.50;99.90;;;;;;4937649;29;20478;-71
2023/10/07 09:22:16;;;;;;;4.80;4.50;;;16.50;99.90;;;;;;4937629;29;20912;-71
2023/10/07 09:24:45;;;;;;;4.10;3.90;;;16.50;99.90;;;;;;4937666;29;20463;-71
2023/10/07 09:27:14;;;;;;;3.60;3.40;;;16.50;99.90;;;;;;4937601;29;20468;-71
2023/10/07 09:29:44;;;;;;;4.00;3.73;;;16.50;99.90;;;;;;4937425;29;20507;-71
2023/10/07 09:32:17;;;;;;;1.63;1.63;;;16.40;99.90;;;;;;4937356;29;20530;-71
2023/10/07 09:34:45;;;;;;;2.50;1.93;;;16.30;99.90;;;;;;4937423;29;20500;-71
2023/10/07 09:37:13;;;;;;;0.97;0.97;;;16.20;99.90;;;;;;4937385;29;20475;-70
2023/10/07 09:39:45;;;;;;;1.13;1.13;;;16.10;99.90;;;;;;4937443;29;20478;-70
2023/10/07 09:42:26;;;;;;;1.07;1.07;;;16.00;99.90;;;;;;4937137;29;20493;-70
2023/10/07 09:44:56;;;;;;;2.23;2.23;;;16.00;99.90;;;;;;4937117;29;20482;-70
2023/10/07 09:47:24;;;;;;;0.90;0.90;;;15.90;99.90;;;;;;4937346;29;20473;-70
2023/10/07 09:49:57;;;;;;;0.80;0.80;;;15.80;99.90;;;;;;4937525;29;20467;-70
2023/10/07 09:52:29;;;;;;;0.60;0.60;;;15.80;99.90;;;;;;4937254;29;20497;-70
2023/10/07 09:55:22;;;;;;;0.40;0.40;;;15.70;99.90;;;;;;4937115;29;20591;-70
2023/10/07 09:58:06;;;;;;;0.50;0.50;;;15.80;99.90;;;;;;4936931;29;20478;-70
2023/10/07 10:00:41;;;;;;;0.80;0.80;;;15.70;99.90;;;;;;4936582;29;20497;-70
2023/10/07 10:03:39;;;;;;;0.53;0.53;;;15.70;99.90;;;;;;4936752;29;20479;-70
2023/10/07 10:06:16;;;;;;;0.70;0.70;;;15.60;99.90;;;;;;4936771;29;20472;-70
2023/10/07 10:09:09;;;;;;;0.60;0.40;;;15.60;99.90;;;;;;4936791;29;20474;-70
2023/10/07 10:11:46;;;;;;;0.90;0.90;;;15.50;99.90;;;;;;4936734;29;20495;-71
2023/10/07 10:14:29;;;;;;;0.70;0.70;;;15.50;99.90;;;;;;4936426;29;20495;-70
2023/10/07 10:16:59;;;;;;;0.97;0.93;;;15.50;99.90;;;;;;4936944;29;20495;-69
2023/10/07 10:19:28;;;;;;;0.77;0.77;;;15.50;99.90;;;;;;4936475;29;20680;-68
2023/10/07 10:21:55;;;;;;;0.70;0.70;;;15.50;99.90;;;;;;4936456;29;20488;-69
2023/10/07 10:24:29;;;;;;;0.80;0.80;;;15.60;99.90;;;;;;4936293;29;20468;-69
2023/10/07 10:27:04;;;;;;;0.70;0.70;;;15.60;99.90;;;;;;4936504;29;20484;-69
2023/10/07 10:29:36;;;;;;;0.70;0.70;;;15.60;99.90;;;;;;4935579;29;20461;-69
2023/10/07 10:32:07;;;;;;;0.60;0.60;;;15.70;99.90;;;;;;4936033;29;20556;-69
2023/10/07 10:34:35;;;;;;;1.03;1.03;;;15.70;99.90;;;;;;4935828;29;20580;-69
2023/10/07 10:37:05;;;;;;;1.70;1.57;;;15.70;99.90;;;;;;4936110;29;20492;-69
2023/10/07 10:39:32;;;;;;;0.80;0.80;;;15.70;99.90;;;;;;4936420;29;20475;-69
2023/10/07 10:42:02;;;;;;;1.50;1.50;;;15.70;99.90;;;;;;4935885;29;20496;-69
2023/10/07 10:44:38;;;;;;;1.00;1.00;;;15.70;99.90;;;;;;4936510;29;20962;-70
2023/10/07 10:47:07;;;;;;;0.67;0.67;;;15.60;99.90;;;;;;4936817;29;20472;-69
2023/10/07 10:49:35;;;;;;;1.13;1.13;;;15.60;99.90;;;;;;4936140;29;20506;-69
2023/10/07 10:52:02;;;;;;;1.40;1.40;;;15.60;99.90;;;;;;4936201;29;20526;-69
2023/10/07 10:54:29;;;;;;;1.60;1.60;;;15.70;99.90;;;;;;4936004;29;20492;-69
2023/10/07 10:56:58;;;;;;;0.77;0.77;;;15.70;99.90;;;;;;4936183;29;20846;-71
2023/10/07 10:59:40;;;;;;;5.93;4.70;;;15.70;99.90;;;;;;4936194;29;20479;-69
2023/10/07 11:02:07;;;;;;;1.60;1.60;;;15.70;99.90;;;;;;4935794;29;20499;-70
2023/10/07 11:04:34;;;;;;;1.00;1.00;;;15.70;99.90;;;;;;4935857;29;20464;-69
2023/10/07 11:07:04;;;;;;;1.20;1.20;;;15.70;99.90;;;;;;4937382;29;20475;-70
2023/10/07 11:09:36;;;;;;;0.70;0.70;;;15.70;99.90;;;;;;4938744;29;20535;-70
2023/10/07 11:12:09;;;;;;;1.30;1.30;;;15.70;99.90;;;;;;4938716;29;21082;-70
2023/10/07 11:14:38;;;;;;;1.30;1.30;;;15.70;99.90;;;;;;4935873;29;20529;-70
2023/10/07 11:17:08;;;;;;;0.80;0.80;;;15.60;99.90;;;;;;4935874;29;20467;-69
2023/10/07 11:19:40;;;;;;;1.13;1.13;;;15.60;99.90;;;;;;4935546;29;20471;-69
2023/10/07 11:22:07;;;;;;;2.63;2.63;;;15.60;99.90;;;;;;4935463;29;20913;-69
2023/10/07 11:24:37;;;;;;;2.47;2.47;;;15.60;99.90;;;;;;4935017;29;20550;-69
2023/10/07 11:27:08;;;;;;;2.90;2.80;;;15.60;99.90;;;;;;4935045;29;20468;-70
2023/10/07 11:29:36;;;;;;;2.63;2.50;;;15.60;99.90;;;;;;4935573;29;20471;-69
2023/10/07 11:32:06;;;;;;;1.07;1.07;;;15.60;99.90;;;;;;4935306;29;20851;-69
2023/10/07 11:34:37;;;;;;;0.73;0.73;;;15.60;99.90;;;;;;4935152;29;20579;-69
2023/10/07 11:37:13;;;;;;;0.60;0.60;;;15.60;99.90;;;;;;4935742;29;20500;-69
2023/10/07 11:39:45;;;;;;;0.50;0.50;;;15.60;99.90;;;;;;4934642;29;20515;-69
2023/10/07 11:42:16;;;;;;;0.70;0.70;;;15.60;99.90;;;;;;4934972;29;20740;-69
2023/10/07 11:44:47;;;;;;;0.50;0.50;;;15.60;99.90;;;;;;4934960;29;20914;-69
2023/10/07 11:47:16;;;;;;;1.40;1.40;;;15.60;99.90;;;;;;4934850;29;20521;-69
2023/10/07 11:49:43;;;;;;;0.90;0.90;;;15.70;99.90;;;;;;4934586;29;20467;-69
2023/10/07 11:52:10;;;;;;;0.80;0.80;;;15.70;99.90;;;;;;4934617;29;20492;-69
2023/10/07 11:54:37;;;;;;;1.47;1.43;;;15.70;99.90;;;;;;4934658;29;20866;-69
2023/10/07 11:57:05;;;;;;;1.83;1.60;;;15.70;99.90;;;;;;4934555;29;20472;-69
2023/10/07 11:59:33;;;;;;;0.90;0.90;;;15.80;99.90;;;;;;4934258;29;20953;-69
2023/10/07 12:02:09;;;;;;;0.97;0.97;;;15.90;99.90;;;;;;4934297;29;20507;-69
2023/10/07 12:04:38;;;;;;;0.73;0.73;;;16.00;99.90;;;;;;4934352;29;20479;-70
2023/10/07 12:07:05;;;;;;;0.80;0.80;;;15.90;99.90;;;;;;4934509;29;20476;-69
2023/10/07 12:09:34;;;;;;;0.77;0.77;;;16.00;99.90;;;;;;4934233;29;20501;-70
2023/10/07 12:12:02;;;;;;;0.60;0.60;;;16.10;99.90;;;;;;4934336;29;20515;-70
2023/10/07 12:14:28;;;;;;;0.60;0.60;;;16.10;99.90;;;;;;4934455;29;20472;-69
2023/10/07 12:16:56;;;;;;;0.67;0.67;;;16.10;99.90;;;;;;4934647;29;20472;-69
2023/10/07 12:19:26;;;;;;;1.00;1.00;;;16.10;99.90;;;;;;4934906;29;20940;-69
2023/10/07 12:21:53;;;;;;;0.67;0.67;;;16.20;99.90;;;;;;4934883;29;20543;-69
2023/10/07 12:24:21;;;;;;;0.57;0.57;;;16.20;99.90;;;;;;4935733;29;20465;-69
2023/10/07 12:26:50;;;;;;;0.40;0.40;;;16.30;99.90;;;;;;4935220;29;20468;-69
2023/10/07 12:29:18;;;;;;;0.97;0.57;;;16.30;99.90;;;;;;4934774;29;20476;-69
2023/10/07 12:31:45;;;;;;;0.80;0.80;;;16.20;99.90;;;;;;4935144;29;20563;-69
2023/10/07 12:34:13;;;;;;;1.03;1.03;;;16.20;99.90;;;;;;4934684;29;20536;-69
2023/10/07 12:36:41;;;;;;;0.70;0.70;;;16.20;99.90;;;;;;4934666;29;20863;-68
2023/10/07 12:39:11;;;;;;;1.37;1.37;;;16.20;99.90;;;;;;4934687;29;20479;-69
2023/10/07 12:41:39;;;;;;;0.90;0.90;;;16.20;99.90;;;;;;4934540;29;20525;-68
2023/10/07 12:44:08;;;;;;;1.13;1.13;;;16.20;99.90;;;;;;4934440;29;20473;-69
2023/10/07 12:46:37;;;;;;;1.37;1.20;;;16.10;99.90;;;;;;4935163;29;20472;-69
2023/10/07 12:49:09;;;;;;;1.00;1.00;;;16.10;99.90;;;;;;4934892;29;20467;-69
2023/10/07 12:51:36;;;;;;;1.60;1.60;;;16.10;99.90;;;;;;4936345;29;20491;-69
2023/10/07 12:54:08;;;;;;;1.70;1.70;;;16.00;99.90;;;;;;4938116;29;20468;-70
2023/10/07 12:56:36;;;;;;;1.00;1.00;;;16.10;99.90;;;;;;4938171;29;20499;-69
2023/10/07 12:59:07;;;;;;;0.97;0.90;;;16.00;99.90;;;;;;4938078;29;20479;-69
2023/10/07 13:01:34;;;;;;;1.10;1.10;;;16.00;99.90;;;;;;4937952;29;20578;-69
2023/10/07 13:04:01;;;;;;;0.53;0.53;;;16.00;99.90;;;;;;4938175;29;20474;-69
2023/10/07 13:06:29;;;;;;;0.90;0.90;;;16.00;99.90;;;;;;4938450;29;20476;-70
2023/10/07 13:08:57;;;;;;;0.70;0.70;;;16.00;99.90;;;;;;4938028;29;20468;-69
2023/10/07 13:11:26;;;;;;;0.67;0.63;;;16.00;99.90;;;;;;4938256;29;21018;-69
2023/10/07 13:13:54;;;;;;;2.10;0.60;;;16.00;99.90;;;;;;4938155;29;20470;-69
2023/10/07 13:16:23;;;;;;;0.73;0.73;;;16.00;99.90;;;;;;4940052;29;20496;-69
2023/10/07 13:18:50;;;;;;;0.83;0.63;;;15.90;99.90;;;;;;4939615;29;20474;-70
2023/10/07 13:21:19;;;;;;;0.40;0.40;;;15.90;99.90;;;;;;4937559;29;21231;-69
2023/10/07 13:23:46;;;;;;;0.73;0.73;;;15.90;99.90;;;;;;4937549;29;20474;-69
2023/10/07 13:26:14;;;;;;;0.63;0.63;;;16.00;99.90;;;;;;4937792;29;20472;-69
2023/10/07 13:28:42;;;;;;;0.50;0.50;;;16.00;99.90;;;;;;4937707;29;20496;-69
2023/10/07 13:31:10;;;;;;;0.70;0.70;;;16.00;99.90;;;;;;4937390;29;20498;-69
2023/10/07 13:33:37;;;;;;;0.53;0.53;;;16.00;99.90;;;;;;4937394;29;20468;-69
2023/10/07 13:36:05;;;;;;;0.70;0.70;;;16.10;99.90;;;;;;4937225;29;20499;-69
2023/10/07 13:38:31;;;;;;;1.50;0.93;;;16.10;99.90;;;;;;4937570;29;20566;-69
2023/10/07 13:40:59;;;;;;;1.13;0.93;;;16.10;99.90;;;;;;4937164;29;20520;-70
2023/10/07 13:43:29;;;;;;;0.50;0.50;;;16.10;99.90;;;;;;4937192;29;20948;-69
2023/10/07 13:45:57;;;;;;;0.83;0.83;;;16.10;99.90;;;;;;4937332;29;20469;-69
2023/10/07 13:48:24;;;;;;;1.30;1.20;;;16.00;99.90;;;;;;4929870;29;20480;-70
2023/10/07 13:50:51;;;;;;;1.70;1.70;;;16.00;99.90;;;;;;4937636;29;20492;-69
2023/10/07 13:53:28;;;;;;;1.40;1.30;;;15.80;99.90;;;;;;4937445;29;20487;-70
2023/10/07 13:55:57;;;;;;;1.90;1.90;;;15.70;99.90;;;;;;4937343;29;20491;-69
2023/10/07 13:58:24;;;;;;;2.47;2.37;;;15.60;99.90;;;;;;4938152;29;20464;-70
2023/10/07 14:00:53;;;;;;;2.00;1.90;;;15.50;99.90;;;;;;4937038;29;20503;-69
2023/10/07 14:03:23;;;;;;;1.80;1.80;;;15.50;99.90;;;;;;4936332;29;20506;-68
2023/10/07 14:05:51;;;;;;;1.80;1.60;;;15.50;99.90;;;;;;4940734;29;20471;-69
2023/10/07 14:08:20;;;;;;;1.87;1.87;;;15.40;99.90;;;;;;4939871;29;20499;-70
2023/10/07 14:10:50;;;;;;;2.07;2.07;;;15.40;99.90;;;;;;4938900;29;20870;-70
2023/10/07 14:13:19;;;;;;;1.90;1.80;;;15.40;99.90;;;;;;4937129;29;20510;-69
2023/10/07 14:15:49;;;;;;;2.00;1.90;;;15.40;99.90;;;;;;4936758;29;20496;-69
2023/10/07 14:18:19;;;;;;;1.80;1.80;;;15.40;99.90;;;;;;4936942;29;20473;-69
2023/10/07 14:20:52;;;;;;;1.60;1.60;;;15.30;99.90;;;;;;4936792;29;20523;-69
2023/10/07 14:23:19;;;;;;;1.97;1.90;;;15.40;99.90;;;;;;4937190;29;20530;-70
2023/10/07 14:25:49;;;;;;;2.27;2.17;;;15.40;99.90;;;;;;4936495;29;20892;-69
2023/10/07 14:28:16;;;;;;;4.30;4.10;;;15.30;99.90;;;;;;4936751;29;20480;-69
2023/10/07 14:30:44;;;;;;;4.90;4.60;;;15.30;99.90;;;;;;4936453;29;20860;-70
2023/10/07 14:33:12;;;;;;;4.47;4.17;;;15.30;99.90;;;;;;4936634;29;20474;-70
2023/10/07 14:35:40;;;;;;;2.80;2.70;;;15.30;99.90;;;;;;4935923;29;20868;-70
2023/10/07 14:38:09;;;;;;;2.63;2.53;;;15.30;99.90;;;;;;4936171;29;20465;-69
2023/10/07 14:40:37;;;;;;;3.07;2.97;;;15.30;99.90;;;;;;4936911;29;20492;-70
2023/10/07 14:43:05;;;;;;;3.50;3.40;;;15.30;99.90;;;;;;4937733;29;20531;-70
2023/10/07 14:45:33;;;;;;;3.00;2.90;;;15.30;99.90;;;;;;4936573;29;20471;-69
2023/10/07 14:48:00;;;;;;;5.27;4.97;;;15.30;99.90;;;;;;4936545;29;20467;-69
2023/10/07 14:50:27;;;;;;;5.50;5.20;;;15.30;99.90;;;;;;4936050;29;20969;-69
2023/10/07 14:52:54;;;;;;;4.83;4.63;;;15.30;99.90;;;;;;4936244;29;20533;-70
2023/10/07 14:55:23;;;;;;;6.37;5.80;;;15.30;99.90;;;;;;4936073;29;20474;-69
2023/10/07 14:57:50;;;;;;;7.97;7.13;;;15.30;99.90;;;;;;4936528;29;20908;-69
2023/10/07 15:00:17;;;;;;;5.47;5.07;;;15.30;99.90;;;;;;4935870;29;21000;-69
2023/10/07 15:02:45;;;;;;;6.80;6.20;;;15.30;99.90;;;;;;4936187;29;20472;-69
2023/10/07 15:05:12;;;;;;;4.00;3.80;;;15.30;99.90;;;;;;4935984;29;20558;-69
2023/10/07 15:07:39;;;;;;;2.10;2.00;;;15.30;99.90;;;;;;4936027;29;20471;-68
2023/10/07 15:10:07;;;;;;;2.40;2.30;;;15.20;99.90;;;;;;4935876;29;20538;-68
2023/10/07 15:12:35;;;;;;;2.50;2.50;;;15.20;99.90;;;;;;4935779;29;20526;-69
2023/10/07 15:15:06;;;;;;;2.50;2.40;;;15.20;99.90;;;;;;4935837;29;20473;-69
2023/10/07 15:17:33;;;;;;;2.80;2.70;;;15.20;99.90;;;;;;4935505;29;20550;-69
2023/10/07 15:20:00;;;;;;;2.40;2.30;;;15.20;99.90;;;;;;4935653;29;20906;-68
2023/10/07 15:22:28;;;;;;;3.17;3.07;;;15.10;99.90;;;;;;4935785;29;20522;-68
2023/10/07 15:24:55;;;;;;;3.30;3.20;;;15.10;99.90;;;;;;4935416;29;20962;-69
2023/10/07 15:27:23;;;;;;;6.30;5.80;;;15.10;99.90;;;;;;4935760;29;20462;-69
2023/10/07 15:29:51;;;;;;;4.77;4.57;;;15.10;99.90;;;;;;4935926;29;20545;-69
2023/10/07 15:32:18;;;;;;;3.07;2.87;;;15.10;99.90;;;;;;4935999;29;20868;-70
2023/10/07 15:34:44;;;;;;;2.30;2.20;;;15.10;99.90;;;;;;4934934;29;20586;-70
2023/10/07 15:37:13;;;;;;;2.93;2.73;;;15.00;99.90;;;;;;4935255;29;20494;-70
2023/10/07 15:39:39;;;;;;;2.37;2.30;;;14.90;99.90;;;;;;4935338;29;20831;-69
2023/10/07 15:42:08;;;;;;;1.97;1.97;;;14.90;99.90;;;;;;4935241;29;20494;-70
2023/10/07 15:44:36;;;;;;;2.20;2.10;;;14.90;99.90;;;;;;4935254;29;20556;-69
2023/10/07 15:47:04;;;;;;;1.97;1.87;;;14.90;99.90;;;;;;4935118;29;20468;-69
2023/10/07 15:49:31;;;;;;;1.80;1.80;;;14.80;99.90;;;;;;4935411;29;20945;-69
2023/10/07 15:51:58;;;;;;;1.97;1.93;;;14.90;99.90;;;;;;4935353;29;20894;-71
2023/10/07 15:54:25;;;;;;;3.37;3.10;;;14.90;99.90;;;;;;4935435;29;20462;-70
2023/10/07 15:56:52;;;;;;;1.70;1.63;;;14.90;99.90;;;;;;4935158;29;20497;-70
2023/10/07 15:59:19;;;;;;;3.23;3.00;;;14.80;99.90;;;;;;4935266;29;20469;-69
2023/10/07 16:01:46;;;;;;;2.03;1.93;;;14.80;99.90;;;;;;4935012;29;20972;-69
2023/10/07 16:04:15;;;;;;;1.80;1.70;;;14.70;99.90;;;;;;4935334;29;20890;-69
2023/10/07 16:06:46;;;;;;;1.80;1.80;;;14.60;99.90;;;;;;4935291;29;20467;-69
2023/10/07 16:09:14;;;;;;;1.13;1.13;;;14.60;99.90;;;;;;4935293;29;20493;-69
2023/10/07 16:11:40;;;;;;;1.37;1.37;;;14.50;99.90;;;;;;4935036;29;20548;-69
2023/10/07 16:14:08;;;;;;;1.73;1.73;;;14.40;99.90;;;;;;4934720;29;20472;-69
2023/10/07 16:16:35;;;;;;;1.90;1.90;;;14.40;99.90;;;;;;4969048;23;20603;-72
2023/10/07 16:19:03;;;;;;;1.50;1.50;;;14.40;99.90;;;;;;4945636;28;20461;-72
2023/10/07 16:21:32;;;;;;;2.53;2.43;;;14.40;99.90;;;;;;4946853;29;20470;-72
2023/10/07 16:23:58;;;;;;;3.73;3.57;;;14.40;99.90;;;;;;4953557;28;20772;-71
2023/10/07 16:26:25;;;;;;;4.77;3.27;;;14.40;99.90;;;;;;4955243;28;20492;-70
2023/10/07 16:28:54;;;;;;;2.90;2.70;;;14.40;99.90;;;;;;4957375;28;20468;-72
2023/10/07 16:31:23;;;;;;;2.73;2.57;;;14.40;99.90;;;;;;4957544;28;20872;-71
2023/10/07 16:33:49;;;;;;;11.20;6.57;;;14.30;99.90;;;;;;4957384;28;20464;-72
2023/10/07 16:36:16;;;;;;;5.33;4.67;;;14.30;99.90;;;;;;4948735;28;20500;-71
2023/10/07 16:38:44;;;;;;;2.73;2.63;;;14.30;99.90;;;;;;4957235;28;20469;-71
2023/10/07 16:41:14;;;;;;;3.40;3.20;;;14.30;99.90;;;;;;4949173;28;20469;-71
2023/10/07 16:43:43;;;;;;;2.60;2.50;;;14.30;99.90;;;;;;4956636;28;20479;-71
2023/10/07 16:46:10;;;;;;;2.60;2.50;;;14.20;99.90;;;;;;4956966;28;20519;-71
2023/10/07 16:48:39;;;;;;;2.43;2.30;;;14.20;99.90;;;;;;4957090;28;20869;-71
2023/10/07 16:51:06;;;;;;;3.00;2.80;;;14.20;99.90;;;;;;4957110;28;20523;-71
2023/10/07 16:53:34;;;;;;;2.53;2.43;;;14.20;99.90;;;;;;4956613;28;20464;-71
2023/10/07 16:56:04;;;;;;;3.10;2.90;;;14.20;99.90;;;;;;4956455;28;20488;-71
2023/10/07 16:58:31;;;;;;;2.90;2.80;;;14.20;99.90;;;;;;4957197;28;20465;-72
2023/10/07 17:00:58;;;;;;;3.47;3.30;;;14.10;99.90;;;;;;4957162;28;20464;-71